sensor_id;sensor_type;location;lat;lon;timestamp;P1;durP1;ratioP1;P2;durP2;ratioP2
9729;SDS011;4904;49.152;11.004;2023-06-26T00:00:33;10.05;;;7.30;;
9729;SDS011;4904;49.152;11.004;2023-06-26T00:03:02;6.97;;;6.35;;
9729;SDS011;4904;49.152;11.004;2023-06-26T00:05:28;13.70;;;6.80;;
9729;SDS011;4904;49.152;11.004;2023-06-26T00:07:55;7.72;;;7.00;;
9729;SDS011;4904;49.152;11.004;2023-06-26T00:10:26;7.85;;;7.00;;
9729;SDS011;4904;49.152;11.004;2023-06-26T00:12:53;7.15;;;6.55;;
9729;SDS011;4904;49.152;11.004;2023-06-26T00:15:20;7.40;;;6.70;;
9729;SDS011;4904;49.152;11.004;2023-06-26T00:17:47;7.53;;;6.82;;
9729;SDS011;4904;49.152;11.004;2023-06-26T00:20:15;9.88;;;6.57;;
9729;SDS011;4904;49.152;11.004;2023-06-26T00:22:43;8.07;;;7.25;;
9729;SDS011;4904;49.152;11.004;2023-06-26T00:25:11;7.25;;;6.55;;
9729;SDS011;4904;49.152;11.004;2023-06-26T00:27:39;8.27;;;7.57;;
9729;SDS011;4904;49.152;11.004;2023-06-26T00:30:07;7.13;;;6.47;;
9729;SDS011;4904;49.152;11.004;2023-06-26T00:32:35;10.30;;;6.43;;
9729;SDS011;4904;49.152;11.004;2023-06-26T00:35:02;8.05;;;6.72;;
9729;SDS011;4904;49.152;11.004;2023-06-26T00:37:29;8.20;;;7.50;;
9729;SDS011;4904;49.152;11.004;2023-06-26T00:39:56;7.78;;;6.78;;
9729;SDS011;4904;49.152;11.004;2023-06-26T00:42:22;7.65;;;6.63;;
9729;SDS011;4904;49.152;11.004;2023-06-26T00:44:51;7.43;;;6.78;;
9729;SDS011;4904;49.152;11.004;2023-06-26T00:47:17;8.32;;;6.50;;
9729;SDS011;4904;49.152;11.004;2023-06-26T00:49:45;8.02;;;6.20;;
9729;SDS011;4904;49.152;11.004;2023-06-26T00:52:11;7.55;;;6.68;;
9729;SDS011;4904;49.152;11.004;2023-06-26T00:54:38;9.27;;;7.22;;
9729;SDS011;4904;49.152;11.004;2023-06-26T00:57:06;8.05;;;6.97;;
9729;SDS011;4904;49.152;11.004;2023-06-26T00:59:33;8.30;;;7.07;;
9729;SDS011;4904;49.152;11.004;2023-06-26T01:02:01;10.45;;;7.30;;
9729;SDS011;4904;49.152;11.004;2023-06-26T01:04:28;7.50;;;6.80;;
9729;SDS011;4904;49.152;11.004;2023-06-26T01:06:57;8.02;;;6.47;;
9729;SDS011;4904;49.152;11.004;2023-06-26T01:09:25;9.15;;;6.60;;
9729;SDS011;4904;49.152;11.004;2023-06-26T01:11:52;7.88;;;6.57;;
9729;SDS011;4904;49.152;11.004;2023-06-26T01:14:20;7.13;;;6.43;;
9729;SDS011;4904;49.152;11.004;2023-06-26T01:16:47;10.05;;;7.40;;
9729;SDS011;4904;49.152;11.004;2023-06-26T01:19:19;9.35;;;7.20;;
9729;SDS011;4904;49.152;11.004;2023-06-26T01:21:55;8.65;;;6.68;;
9729;SDS011;4904;49.152;11.004;2023-06-26T01:24:28;7.68;;;6.90;;
9729;SDS011;4904;49.152;11.004;2023-06-26T01:27:03;8.73;;;7.20;;
9729;SDS011;4904;49.152;11.004;2023-06-26T01:29:31;6.90;;;6.20;;
9729;SDS011;4904;49.152;11.004;2023-06-26T01:31:59;7.82;;;6.97;;
9729;SDS011;4904;49.152;11.004;2023-06-26T01:34:26;8.32;;;6.80;;
9729;SDS011;4904;49.152;11.004;2023-06-26T01:36:53;6.80;;;6.18;;
9729;SDS011;4904;49.152;11.004;2023-06-26T01:39:20;9.20;;;7.18;;
9729;SDS011;4904;49.152;11.004;2023-06-26T01:41:47;7.57;;;6.82;;
9729;SDS011;4904;49.152;11.004;2023-06-26T01:44:18;7.93;;;7.22;;
9729;SDS011;4904;49.152;11.004;2023-06-26T01:46:54;7.93;;;6.72;;
9729;SDS011;4904;49.152;11.004;2023-06-26T01:49:29;7.65;;;6.85;;
9729;SDS011;4904;49.152;11.004;2023-06-26T01:52:14;7.22;;;6.57;;
9729;SDS011;4904;49.152;11.004;2023-06-26T01:54:47;7.68;;;7.03;;
9729;SDS011;4904;49.152;11.004;2023-06-26T01:57:20;7.78;;;6.88;;
9729;SDS011;4904;49.152;11.004;2023-06-26T01:59:50;14.57;;;6.63;;
9729;SDS011;4904;49.152;11.004;2023-06-26T02:02:17;7.32;;;6.63;;
9729;SDS011;4904;49.152;11.004;2023-06-26T02:04:44;8.43;;;7.53;;
9729;SDS011;4904;49.152;11.004;2023-06-26T02:07:13;8.77;;;6.75;;
9729;SDS011;4904;49.152;11.004;2023-06-26T02:09:40;8.45;;;7.68;;
9729;SDS011;4904;49.152;11.004;2023-06-26T02:12:08;8.32;;;7.53;;
9729;SDS011;4904;49.152;11.004;2023-06-26T02:14:35;8.25;;;7.50;;
9729;SDS011;4904;49.152;11.004;2023-06-26T02:17:03;7.85;;;7.15;;
9729;SDS011;4904;49.152;11.004;2023-06-26T02:19:30;7.75;;;6.95;;
9729;SDS011;4904;49.152;11.004;2023-06-26T02:21:57;8.40;;;7.10;;
9729;SDS011;4904;49.152;11.004;2023-06-26T02:24:24;7.63;;;6.93;;
9729;SDS011;4904;49.152;11.004;2023-06-26T02:26:52;7.63;;;6.93;;
9729;SDS011;4904;49.152;11.004;2023-06-26T02:29:19;8.32;;;7.10;;
9729;SDS011;4904;49.152;11.004;2023-06-26T02:31:46;7.82;;;7.13;;
9729;SDS011;4904;49.152;11.004;2023-06-26T02:34:14;8.00;;;7.20;;
9729;SDS011;4904;49.152;11.004;2023-06-26T02:36:41;8.07;;;7.38;;
9729;SDS011;4904;49.152;11.004;2023-06-26T02:39:07;7.50;;;6.80;;
9729;SDS011;4904;49.152;11.004;2023-06-26T02:41:34;8.35;;;6.82;;
9729;SDS011;4904;49.152;11.004;2023-06-26T02:44:01;9.80;;;7.40;;
9729;SDS011;4904;49.152;11.004;2023-06-26T02:46:28;8.07;;;7.38;;
9729;SDS011;4904;49.152;11.004;2023-06-26T02:48:55;7.03;;;6.32;;
9729;SDS011;4904;49.152;11.004;2023-06-26T02:51:23;8.02;;;7.28;;
9729;SDS011;4904;49.152;11.004;2023-06-26T02:53:50;7.97;;;7.18;;
9729;SDS011;4904;49.152;11.004;2023-06-26T02:56:17;8.05;;;7.28;;
9729;SDS011;4904;49.152;11.004;2023-06-26T02:58:43;7.85;;;6.90;;
9729;SDS011;4904;49.152;11.004;2023-06-26T03:01:10;9.38;;;7.22;;
9729;SDS011;4904;49.152;11.004;2023-06-26T03:03:37;7.55;;;6.72;;
9729;SDS011;4904;49.152;11.004;2023-06-26T03:06:06;7.95;;;7.15;;
9729;SDS011;4904;49.152;11.004;2023-06-26T03:08:36;7.90;;;7.20;;
9729;SDS011;4904;49.152;11.004;2023-06-26T03:11:03;7.85;;;7.15;;
9729;SDS011;4904;49.152;11.004;2023-06-26T03:13:31;8.85;;;7.32;;
9729;SDS011;4904;49.152;11.004;2023-06-26T03:15:58;7.53;;;6.82;;
9729;SDS011;4904;49.152;11.004;2023-06-26T03:18:25;8.55;;;6.90;;
9729;SDS011;4904;49.152;11.004;2023-06-26T03:20:52;8.68;;;7.43;;
9729;SDS011;4904;49.152;11.004;2023-06-26T03:23:20;7.60;;;6.90;;
9729;SDS011;4904;49.152;11.004;2023-06-26T03:25:48;7.57;;;6.88;;
9729;SDS011;4904;49.152;11.004;2023-06-26T03:28:15;8.00;;;7.18;;
9729;SDS011;4904;49.152;11.004;2023-06-26T03:30:42;7.53;;;6.82;;
9729;SDS011;4904;49.152;11.004;2023-06-26T03:33:09;8.70;;;7.40;;
9729;SDS011;4904;49.152;11.004;2023-06-26T03:35:37;8.13;;;7.32;;
9729;SDS011;4904;49.152;11.004;2023-06-26T03:38:04;7.45;;;6.75;;
9729;SDS011;4904;49.152;11.004;2023-06-26T03:40:31;8.13;;;7.18;;
9729;SDS011;4904;49.152;11.004;2023-06-26T03:42:59;10.55;;;7.00;;
9729;SDS011;4904;49.152;11.004;2023-06-26T03:45:26;7.90;;;7.15;;
9729;SDS011;4904;49.152;11.004;2023-06-26T03:47:53;8.15;;;7.40;;
9729;SDS011;4904;49.152;11.004;2023-06-26T03:50:20;8.15;;;7.45;;
9729;SDS011;4904;49.152;11.004;2023-06-26T03:52:46;7.72;;;7.03;;
9729;SDS011;4904;49.152;11.004;2023-06-26T03:55:15;8.45;;;7.15;;
9729;SDS011;4904;49.152;11.004;2023-06-26T03:57:43;8.55;;;7.28;;
9729;SDS011;4904;49.152;11.004;2023-06-26T04:00:12;9.60;;;7.22;;
9729;SDS011;4904;49.152;11.004;2023-06-26T04:02:40;8.10;;;7.30;;
9729;SDS011;4904;49.152;11.004;2023-06-26T04:05:07;8.45;;;7.55;;
9729;SDS011;4904;49.152;11.004;2023-06-26T04:07:34;7.25;;;6.55;;
9729;SDS011;4904;49.152;11.004;2023-06-26T04:10:01;9.68;;;7.47;;
9729;SDS011;4904;49.152;11.004;2023-06-26T04:12:28;8.43;;;7.00;;
9729;SDS011;4904;49.152;11.004;2023-06-26T04:14:54;7.82;;;7.13;;
9729;SDS011;4904;49.152;11.004;2023-06-26T04:17:23;8.10;;;7.35;;
9729;SDS011;4904;49.152;11.004;2023-06-26T04:19:49;8.13;;;7.28;;
9729;SDS011;4904;49.152;11.004;2023-06-26T04:22:16;10.80;;;7.57;;
9729;SDS011;4904;49.152;11.004;2023-06-26T04:24:43;7.72;;;6.97;;
9729;SDS011;4904;49.152;11.004;2023-06-26T04:27:11;9.65;;;7.53;;
9729;SDS011;4904;49.152;11.004;2023-06-26T04:29:39;9.68;;;7.40;;
9729;SDS011;4904;49.152;11.004;2023-06-26T04:32:06;7.70;;;6.93;;
9729;SDS011;4904;49.152;11.004;2023-06-26T04:34:34;7.60;;;6.90;;
9729;SDS011;4904;49.152;11.004;2023-06-26T04:37:06;7.65;;;6.85;;
9729;SDS011;4904;49.152;11.004;2023-06-26T04:39:34;7.22;;;6.53;;
9729;SDS011;4904;49.152;11.004;2023-06-26T04:42:01;7.55;;;6.63;;
9729;SDS011;4904;49.152;11.004;2023-06-26T04:44:29;10.13;;;7.50;;
9729;SDS011;4904;49.152;11.004;2023-06-26T04:46:56;8.32;;;6.55;;
9729;SDS011;4904;49.152;11.004;2023-06-26T04:49:22;7.28;;;6.55;;
9729;SDS011;4904;49.152;11.004;2023-06-26T04:51:51;7.38;;;6.68;;
9729;SDS011;4904;49.152;11.004;2023-06-26T04:54:18;8.00;;;7.20;;
9729;SDS011;4904;49.152;11.004;2023-06-26T04:56:45;8.07;;;6.20;;
9729;SDS011;4904;49.152;11.004;2023-06-26T04:59:13;7.07;;;6.40;;
9729;SDS011;4904;49.152;11.004;2023-06-26T05:01:40;6.68;;;6.07;;
9729;SDS011;4904;49.152;11.004;2023-06-26T05:04:07;7.53;;;6.47;;
9729;SDS011;4904;49.152;11.004;2023-06-26T05:06:34;7.18;;;6.47;;
9729;SDS011;4904;49.152;11.004;2023-06-26T05:09:02;6.70;;;6.10;;
9729;SDS011;4904;49.152;11.004;2023-06-26T05:11:29;7.22;;;6.25;;
9729;SDS011;4904;49.152;11.004;2023-06-26T05:13:56;9.10;;;6.18;;
9729;SDS011;4904;49.152;11.004;2023-06-26T05:16:23;9.70;;;6.20;;
9729;SDS011;4904;49.152;11.004;2023-06-26T05:18:49;7.75;;;6.35;;
9729;SDS011;4904;49.152;11.004;2023-06-26T05:21:16;7.40;;;6.70;;
9729;SDS011;4904;49.152;11.004;2023-06-26T05:23:43;7.05;;;6.35;;
9729;SDS011;4904;49.152;11.004;2023-06-26T05:26:14;7.47;;;5.97;;
9729;SDS011;4904;49.152;11.004;2023-06-26T05:28:42;6.88;;;6.20;;
9729;SDS011;4904;49.152;11.004;2023-06-26T05:31:13;6.85;;;6.07;;
9729;SDS011;4904;49.152;11.004;2023-06-26T05:33:40;7.07;;;6.38;;
9729;SDS011;4904;49.152;11.004;2023-06-26T05:36:10;7.28;;;6.57;;
9729;SDS011;4904;49.152;11.004;2023-06-26T05:38:39;8.30;;;6.60;;
9729;SDS011;4904;49.152;11.004;2023-06-26T05:41:07;7.30;;;6.47;;
9729;SDS011;4904;49.152;11.004;2023-06-26T05:43:35;7.38;;;6.68;;
9729;SDS011;4904;49.152;11.004;2023-06-26T05:46:02;7.30;;;6.60;;
9729;SDS011;4904;49.152;11.004;2023-06-26T05:48:29;7.93;;;6.03;;
9729;SDS011;4904;49.152;11.004;2023-06-26T05:50:56;6.55;;;5.95;;
9729;SDS011;4904;49.152;11.004;2023-06-26T05:53:23;6.82;;;6.15;;
9729;SDS011;4904;49.152;11.004;2023-06-26T05:55:51;7.00;;;6.40;;
9729;SDS011;4904;49.152;11.004;2023-06-26T05:58:18;7.55;;;6.85;;
9729;SDS011;4904;49.152;11.004;2023-06-26T06:00:49;7.57;;;6.50;;
9729;SDS011;4904;49.152;11.004;2023-06-26T06:03:16;7.63;;;6.60;;
9729;SDS011;4904;49.152;11.004;2023-06-26T06:05:42;13.02;;;9.07;;
9729;SDS011;4904;49.152;11.004;2023-06-26T06:08:09;7.78;;;6.70;;
9729;SDS011;4904;49.152;11.004;2023-06-26T06:10:36;8.02;;;6.40;;
9729;SDS011;4904;49.152;11.004;2023-06-26T06:13:03;6.13;;;5.53;;
9729;SDS011;4904;49.152;11.004;2023-06-26T06:15:30;7.03;;;6.43;;
9729;SDS011;4904;49.152;11.004;2023-06-26T06:17:58;6.55;;;5.93;;
9729;SDS011;4904;49.152;11.004;2023-06-26T06:20:26;9.45;;;6.43;;
9729;SDS011;4904;49.152;11.004;2023-06-26T06:22:53;7.97;;;6.65;;
9729;SDS011;4904;49.152;11.004;2023-06-26T06:25:19;7.68;;;6.65;;
9729;SDS011;4904;49.152;11.004;2023-06-26T06:27:46;6.82;;;6.13;;
9729;SDS011;4904;49.152;11.004;2023-06-26T06:30:13;7.13;;;6.43;;
9729;SDS011;4904;49.152;11.004;2023-06-26T06:32:40;6.80;;;6.20;;
9729;SDS011;4904;49.152;11.004;2023-06-26T06:35:08;6.65;;;6.03;;
9729;SDS011;4904;49.152;11.004;2023-06-26T06:37:36;8.32;;;6.45;;
9729;SDS011;4904;49.152;11.004;2023-06-26T06:40:03;6.80;;;6.05;;
9729;SDS011;4904;49.152;11.004;2023-06-26T06:42:32;8.35;;;7.30;;
9729;SDS011;4904;49.152;11.004;2023-06-26T06:44:59;8.18;;;6.53;;
9729;SDS011;4904;49.152;11.004;2023-06-26T06:47:26;6.70;;;6.18;;
9729;SDS011;4904;49.152;11.004;2023-06-26T06:49:53;7.75;;;6.95;;
9729;SDS011;4904;49.152;11.004;2023-06-26T06:52:21;6.65;;;6.05;;
9729;SDS011;4904;49.152;11.004;2023-06-26T06:54:51;9.18;;;6.93;;
9729;SDS011;4904;49.152;11.004;2023-06-26T06:57:19;7.18;;;6.40;;
9729;SDS011;4904;49.152;11.004;2023-06-26T06:59:46;9.10;;;6.68;;
9729;SDS011;4904;49.152;11.004;2023-06-26T07:02:14;6.75;;;6.15;;
9729;SDS011;4904;49.152;11.004;2023-06-26T07:04:42;6.93;;;6.32;;
9729;SDS011;4904;49.152;11.004;2023-06-26T07:07:09;7.18;;;6.47;;
9729;SDS011;4904;49.152;11.004;2023-06-26T07:09:37;7.20;;;6.43;;
9729;SDS011;4904;49.152;11.004;2023-06-26T07:12:05;7.10;;;6.18;;
9729;SDS011;4904;49.152;11.004;2023-06-26T07:14:32;7.90;;;6.18;;
9729;SDS011;4904;49.152;11.004;2023-06-26T07:16:59;6.95;;;6.25;;
9729;SDS011;4904;49.152;11.004;2023-06-26T07:19:26;7.05;;;6.35;;
9729;SDS011;4904;49.152;11.004;2023-06-26T07:21:53;8.43;;;6.32;;
9729;SDS011;4904;49.152;11.004;2023-06-26T07:24:19;6.10;;;5.60;;
9729;SDS011;4904;49.152;11.004;2023-06-26T07:26:48;7.53;;;6.82;;
9729;SDS011;4904;49.152;11.004;2023-06-26T07:29:14;8.63;;;6.60;;
9729;SDS011;4904;49.152;11.004;2023-06-26T07:31:41;11.15;;;6.90;;
9729;SDS011;4904;49.152;11.004;2023-06-26T07:34:10;8.60;;;6.22;;
9729;SDS011;4904;49.152;11.004;2023-06-26T07:36:37;7.43;;;6.63;;
9729;SDS011;4904;49.152;11.004;2023-06-26T07:39:03;7.72;;;6.95;;
9729;SDS011;4904;49.152;11.004;2023-06-26T07:41:31;7.47;;;6.60;;
9729;SDS011;4904;49.152;11.004;2023-06-26T07:43:59;6.93;;;6.32;;
9729;SDS011;4904;49.152;11.004;2023-06-26T07:46:26;8.35;;;7.07;;
9729;SDS011;4904;49.152;11.004;2023-06-26T07:48:53;8.38;;;7.57;;
9729;SDS011;4904;49.152;11.004;2023-06-26T07:51:20;8.00;;;6.40;;
9729;SDS011;4904;49.152;11.004;2023-06-26T07:53:47;7.85;;;6.80;;
9729;SDS011;4904;49.152;11.004;2023-06-26T07:56:14;7.57;;;6.85;;
9729;SDS011;4904;49.152;11.004;2023-06-26T07:58:40;8.32;;;6.70;;
9729;SDS011;4904;49.152;11.004;2023-06-26T08:01:09;8.98;;;7.38;;
9729;SDS011;4904;49.152;11.004;2023-06-26T08:03:36;7.63;;;6.88;;
9729;SDS011;4904;49.152;11.004;2023-06-26T08:06:02;7.60;;;6.90;;
9729;SDS011;4904;49.152;11.004;2023-06-26T08:08:30;8.57;;;7.10;;
9729;SDS011;4904;49.152;11.004;2023-06-26T08:10:57;8.60;;;7.20;;
9729;SDS011;4904;49.152;11.004;2023-06-26T08:13:24;7.57;;;6.95;;
9729;SDS011;4904;49.152;11.004;2023-06-26T08:15:51;8.02;;;7.15;;
9729;SDS011;4904;49.152;11.004;2023-06-26T08:18:19;7.72;;;6.93;;
9729;SDS011;4904;49.152;11.004;2023-06-26T08:20:46;7.38;;;6.68;;
9729;SDS011;4904;49.152;11.004;2023-06-26T08:23:13;10.65;;;7.40;;
9729;SDS011;4904;49.152;11.004;2023-06-26T08:25:40;8.02;;;7.22;;
9729;SDS011;4904;49.152;11.004;2023-06-26T08:28:07;7.60;;;6.90;;
9729;SDS011;4904;49.152;11.004;2023-06-26T08:30:34;7.22;;;6.63;;
9729;SDS011;4904;49.152;11.004;2023-06-26T08:33:01;7.40;;;6.53;;
9729;SDS011;4904;49.152;11.004;2023-06-26T08:35:29;7.40;;;6.70;;
9729;SDS011;4904;49.152;11.004;2023-06-26T08:37:56;7.13;;;6.53;;
9729;SDS011;4904;49.152;11.004;2023-06-26T08:40:23;8.80;;;6.88;;
9729;SDS011;4904;49.152;11.004;2023-06-26T08:42:50;7.97;;;6.85;;
9729;SDS011;4904;49.152;11.004;2023-06-26T08:45:18;10.32;;;7.05;;
9729;SDS011;4904;49.152;11.004;2023-06-26T08:47:46;7.28;;;6.57;;
9729;SDS011;4904;49.152;11.004;2023-06-26T08:50:17;7.03;;;6.38;;
9729;SDS011;4904;49.152;11.004;2023-06-26T08:52:51;6.70;;;6.10;;
9729;SDS011;4904;49.152;11.004;2023-06-26T08:55:20;6.95;;;6.25;;
9729;SDS011;4904;49.152;11.004;2023-06-26T08:57:49;7.53;;;6.20;;
9729;SDS011;4904;49.152;11.004;2023-06-26T09:00:17;8.13;;;6.78;;
9729;SDS011;4904;49.152;11.004;2023-06-26T09:02:45;8.43;;;6.63;;
9729;SDS011;4904;49.152;11.004;2023-06-26T09:05:12;7.10;;;6.40;;
9729;SDS011;4904;49.152;11.004;2023-06-26T09:07:39;7.53;;;6.88;;
9729;SDS011;4904;49.152;11.004;2023-06-26T09:10:08;9.18;;;6.50;;
9729;SDS011;4904;49.152;11.004;2023-06-26T09:12:36;7.28;;;6.68;;
9729;SDS011;4904;49.152;11.004;2023-06-26T09:15:03;7.10;;;6.50;;
9729;SDS011;4904;49.152;11.004;2023-06-26T09:17:33;7.18;;;6.47;;
9729;SDS011;4904;49.152;11.004;2023-06-26T09:20:04;7.90;;;6.35;;
9729;SDS011;4904;49.152;11.004;2023-06-26T09:22:33;7.43;;;6.72;;
9729;SDS011;4904;49.152;11.004;2023-06-26T09:25:04;7.65;;;6.82;;
9729;SDS011;4904;49.152;11.004;2023-06-26T09:27:33;6.95;;;6.30;;
9729;SDS011;4904;49.152;11.004;2023-06-26T09:30:01;8.35;;;6.90;;
9729;SDS011;4904;49.152;11.004;2023-06-26T09:32:28;7.60;;;6.90;;
9729;SDS011;4904;49.152;11.004;2023-06-26T09:34:55;7.25;;;6.55;;
9729;SDS011;4904;49.152;11.004;2023-06-26T09:37:25;7.45;;;6.80;;
9729;SDS011;4904;49.152;11.004;2023-06-26T09:39:52;7.30;;;6.70;;
9729;SDS011;4904;49.152;11.004;2023-06-26T09:42:20;7.90;;;6.47;;
9729;SDS011;4904;49.152;11.004;2023-06-26T09:44:48;7.00;;;6.35;;
9729;SDS011;4904;49.152;11.004;2023-06-26T09:47:16;10.27;;;5.97;;
9729;SDS011;4904;49.152;11.004;2023-06-26T09:49:45;6.88;;;6.28;;
9729;SDS011;4904;49.152;11.004;2023-06-26T09:52:13;6.35;;;5.82;;
9729;SDS011;4904;49.152;11.004;2023-06-26T09:54:41;6.13;;;5.63;;
9729;SDS011;4904;49.152;11.004;2023-06-26T09:57:10;5.47;;;4.85;;
9729;SDS011;4904;49.152;11.004;2023-06-26T09:59:38;6.57;;;5.95;;
9729;SDS011;4904;49.152;11.004;2023-06-26T10:02:07;6.13;;;5.63;;
9729;SDS011;4904;49.152;11.004;2023-06-26T10:04:35;7.43;;;5.57;;
9729;SDS011;4904;49.152;11.004;2023-06-26T10:07:04;6.63;;;5.18;;
9729;SDS011;4904;49.152;11.004;2023-06-26T10:09:32;6.20;;;5.70;;
9729;SDS011;4904;49.152;11.004;2023-06-26T10:12:01;6.45;;;5.50;;
9729;SDS011;4904;49.152;11.004;2023-06-26T10:14:31;5.90;;;5.32;;
9729;SDS011;4904;49.152;11.004;2023-06-26T10:17:01;6.25;;;5.65;;
9729;SDS011;4904;49.152;11.004;2023-06-26T10:19:31;5.78;;;5.28;;
9729;SDS011;4904;49.152;11.004;2023-06-26T10:22:00;6.03;;;5.43;;
9729;SDS011;4904;49.152;11.004;2023-06-26T10:24:29;5.75;;;5.25;;
9729;SDS011;4904;49.152;11.004;2023-06-26T10:27:02;6.32;;;5.82;;
9729;SDS011;4904;49.152;11.004;2023-06-26T10:29:35;5.45;;;5.00;;
9729;SDS011;4904;49.152;11.004;2023-06-26T10:32:03;5.55;;;5.03;;
9729;SDS011;4904;49.152;11.004;2023-06-26T10:34:33;5.80;;;5.30;;
9729;SDS011;4904;49.152;11.004;2023-06-26T10:37:01;7.07;;;5.78;;
9729;SDS011;4904;49.152;11.004;2023-06-26T10:39:32;6.07;;;5.53;;
9729;SDS011;4904;49.152;11.004;2023-06-26T10:42:14;5.95;;;5.38;;
9729;SDS011;4904;49.152;11.004;2023-06-26T10:44:41;6.60;;;5.65;;
9729;SDS011;4904;49.152;11.004;2023-06-26T10:47:09;5.40;;;4.93;;
9729;SDS011;4904;49.152;11.004;2023-06-26T10:49:38;5.70;;;5.20;;
9729;SDS011;4904;49.152;11.004;2023-06-26T10:52:12;5.70;;;5.20;;
9729;SDS011;4904;49.152;11.004;2023-06-26T10:54:39;5.90;;;5.28;;
9729;SDS011;4904;49.152;11.004;2023-06-26T10:57:06;5.68;;;5.13;;
9729;SDS011;4904;49.152;11.004;2023-06-26T10:59:34;5.63;;;5.13;;
9729;SDS011;4904;49.152;11.004;2023-06-26T11:02:05;5.50;;;5.00;;
9729;SDS011;4904;49.152;11.004;2023-06-26T11:04:40;6.03;;;5.53;;
9729;SDS011;4904;49.152;11.004;2023-06-26T11:07:17;5.53;;;5.03;;
9729;SDS011;4904;49.152;11.004;2023-06-26T11:09:58;5.22;;;4.78;;
9729;SDS011;4904;49.152;11.004;2023-06-26T11:12:33;5.70;;;5.20;;
9729;SDS011;4904;49.152;11.004;2023-06-26T11:15:02;5.35;;;4.93;;
9729;SDS011;4904;49.152;11.004;2023-06-26T11:17:29;5.50;;;5.03;;
9729;SDS011;4904;49.152;11.004;2023-06-26T11:19:58;5.40;;;5.00;;
9729;SDS011;4904;49.152;11.004;2023-06-26T11:22:25;5.85;;;5.22;;
9729;SDS011;4904;49.152;11.004;2023-06-26T11:24:53;5.28;;;4.80;;
9729;SDS011;4904;49.152;11.004;2023-06-26T11:27:20;5.20;;;4.70;;
9729;SDS011;4904;49.152;11.004;2023-06-26T11:29:49;4.53;;;4.22;;
9729;SDS011;4904;49.152;11.004;2023-06-26T11:32:16;5.60;;;5.10;;
9729;SDS011;4904;49.152;11.004;2023-06-26T11:34:43;5.60;;;5.20;;
9729;SDS011;4904;49.152;11.004;2023-06-26T11:37:11;4.88;;;4.47;;
9729;SDS011;4904;49.152;11.004;2023-06-26T11:39:38;5.38;;;4.90;;
9729;SDS011;4904;49.152;11.004;2023-06-26T11:42:05;5.28;;;4.88;;
9729;SDS011;4904;49.152;11.004;2023-06-26T11:44:32;5.35;;;4.90;;
9729;SDS011;4904;49.152;11.004;2023-06-26T11:47:06;5.30;;;4.90;;
9729;SDS011;4904;49.152;11.004;2023-06-26T11:49:33;4.97;;;4.47;;
9729;SDS011;4904;49.152;11.004;2023-06-26T11:52:02;5.28;;;4.88;;
9729;SDS011;4904;49.152;11.004;2023-06-26T11:54:33;5.43;;;4.97;;
9729;SDS011;4904;49.152;11.004;2023-06-26T11:56:59;5.30;;;4.80;;
9729;SDS011;4904;49.152;11.004;2023-06-26T11:59:36;5.03;;;4.63;;
9729;SDS011;4904;49.152;11.004;2023-06-26T12:02:05;5.35;;;4.85;;
9729;SDS011;4904;49.152;11.004;2023-06-26T12:04:33;4.82;;;4.43;;
9729;SDS011;4904;49.152;11.004;2023-06-26T12:07:02;4.30;;;3.90;;
9729;SDS011;4904;49.152;11.004;2023-06-26T12:09:33;4.60;;;4.30;;
9729;SDS011;4904;49.152;11.004;2023-06-26T12:12:04;4.88;;;4.47;;
9729;SDS011;4904;49.152;11.004;2023-06-26T12:14:31;5.25;;;4.85;;
9729;SDS011;4904;49.152;11.004;2023-06-26T12:17:03;4.97;;;4.45;;
9729;SDS011;4904;49.152;11.004;2023-06-26T12:19:33;4.60;;;4.30;;
9729;SDS011;4904;49.152;11.004;2023-06-26T12:22:05;4.63;;;4.22;;
9729;SDS011;4904;49.152;11.004;2023-06-26T12:24:35;5.00;;;4.45;;
9729;SDS011;4904;49.152;11.004;2023-06-26T12:27:06;6.78;;;4.80;;
9729;SDS011;4904;49.152;11.004;2023-06-26T12:29:35;5.45;;;4.82;;
9729;SDS011;4904;49.152;11.004;2023-06-26T12:32:03;5.28;;;4.88;;
9729;SDS011;4904;49.152;11.004;2023-06-26T12:34:34;5.03;;;4.63;;
9729;SDS011;4904;49.152;11.004;2023-06-26T12:37:04;5.43;;;4.88;;
9729;SDS011;4904;49.152;11.004;2023-06-26T12:39:46;5.45;;;5.05;;
9729;SDS011;4904;49.152;11.004;2023-06-26T12:42:13;7.15;;;4.80;;
9729;SDS011;4904;49.152;11.004;2023-06-26T12:44:41;6.72;;;5.05;;
9729;SDS011;4904;49.152;11.004;2023-06-26T12:47:08;5.55;;;5.07;;
9729;SDS011;4904;49.152;11.004;2023-06-26T12:49:38;5.90;;;5.30;;
9729;SDS011;4904;49.152;11.004;2023-06-26T12:52:08;6.00;;;5.53;;
9729;SDS011;4904;49.152;11.004;2023-06-26T12:54:36;6.25;;;5.65;;
9729;SDS011;4904;49.152;11.004;2023-06-26T12:57:06;6.00;;;5.50;;
9729;SDS011;4904;49.152;11.004;2023-06-26T12:59:34;6.30;;;5.70;;
9729;SDS011;4904;49.152;11.004;2023-06-26T13:02:02;5.60;;;5.18;;
9729;SDS011;4904;49.152;11.004;2023-06-26T13:04:29;5.63;;;5.22;;
9729;SDS011;4904;49.152;11.004;2023-06-26T13:06:56;6.18;;;5.55;;
9729;SDS011;4904;49.152;11.004;2023-06-26T13:09:24;6.45;;;5.85;;
9729;SDS011;4904;49.152;11.004;2023-06-26T13:11:51;8.07;;;6.03;;
9729;SDS011;4904;49.152;11.004;2023-06-26T13:14:20;6.03;;;5.53;;
9729;SDS011;4904;49.152;11.004;2023-06-26T13:16:47;6.18;;;5.68;;
9729;SDS011;4904;49.152;11.004;2023-06-26T13:19:14;6.53;;;5.78;;
9729;SDS011;4904;49.152;11.004;2023-06-26T13:21:40;7.70;;;5.70;;
9729;SDS011;4904;49.152;11.004;2023-06-26T13:24:08;6.65;;;6.15;;
9729;SDS011;4904;49.152;11.004;2023-06-26T13:26:35;6.28;;;5.78;;
9729;SDS011;4904;49.152;11.004;2023-06-26T13:29:02;6.50;;;5.85;;
9729;SDS011;4904;49.152;11.004;2023-06-26T13:31:30;6.70;;;6.10;;
9729;SDS011;4904;49.152;11.004;2023-06-26T13:33:57;5.80;;;5.30;;
9729;SDS011;4904;49.152;11.004;2023-06-26T13:36:25;6.63;;;6.03;;
9729;SDS011;4904;49.152;11.004;2023-06-26T13:38:52;6.55;;;6.00;;
9729;SDS011;4904;49.152;11.004;2023-06-26T13:41:20;6.35;;;5.85;;
9729;SDS011;4904;49.152;11.004;2023-06-26T13:43:47;6.10;;;5.60;;
9729;SDS011;4904;49.152;11.004;2023-06-26T13:46:15;7.13;;;6.25;;
9729;SDS011;4904;49.152;11.004;2023-06-26T13:48:43;6.75;;;6.25;;
9729;SDS011;4904;49.152;11.004;2023-06-26T13:51:10;6.88;;;6.28;;
9729;SDS011;4904;49.152;11.004;2023-06-26T13:53:37;6.63;;;6.03;;
9729;SDS011;4904;49.152;11.004;2023-06-26T13:56:04;6.60;;;6.00;;
9729;SDS011;4904;49.152;11.004;2023-06-26T13:58:31;7.45;;;5.85;;
9729;SDS011;4904;49.152;11.004;2023-06-26T14:01:00;6.78;;;6.18;;
9729;SDS011;4904;49.152;11.004;2023-06-26T14:03:28;6.43;;;5.85;;
9729;SDS011;4904;49.152;11.004;2023-06-26T14:05:56;7.05;;;6.45;;
9729;SDS011;4904;49.152;11.004;2023-06-26T14:08:23;6.80;;;6.20;;
9729;SDS011;4904;49.152;11.004;2023-06-26T14:10:50;6.15;;;5.60;;
9729;SDS011;4904;49.152;11.004;2023-06-26T14:13:17;7.28;;;6.10;;
9729;SDS011;4904;49.152;11.004;2023-06-26T14:15:44;6.75;;;6.25;;
9729;SDS011;4904;49.152;11.004;2023-06-26T14:18:11;6.82;;;6.15;;
9729;SDS011;4904;49.152;11.004;2023-06-26T14:20:39;6.90;;;5.85;;
9729;SDS011;4904;49.152;11.004;2023-06-26T14:23:08;6.97;;;6.47;;
9729;SDS011;4904;49.152;11.004;2023-06-26T14:25:35;6.70;;;6.10;;
9729;SDS011;4904;49.152;11.004;2023-06-26T14:28:02;6.65;;;6.15;;
9729;SDS011;4904;49.152;11.004;2023-06-26T14:30:29;6.82;;;6.18;;
9729;SDS011;4904;49.152;11.004;2023-06-26T14:32:55;6.63;;;6.13;;
9729;SDS011;4904;49.152;11.004;2023-06-26T14:35:22;7.25;;;6.15;;
9729;SDS011;4904;49.152;11.004;2023-06-26T14:37:49;6.63;;;6.13;;
9729;SDS011;4904;49.152;11.004;2023-06-26T14:40:18;9.82;;;6.25;;
9729;SDS011;4904;49.152;11.004;2023-06-26T14:42:45;7.25;;;6.65;;
9729;SDS011;4904;49.152;11.004;2023-06-26T14:45:12;7.72;;;6.50;;
9729;SDS011;4904;49.152;11.004;2023-06-26T14:47:39;7.28;;;6.68;;
9729;SDS011;4904;49.152;11.004;2023-06-26T14:50:07;7.82;;;7.13;;
9729;SDS011;4904;49.152;11.004;2023-06-26T14:52:35;7.82;;;7.13;;
9729;SDS011;4904;49.152;11.004;2023-06-26T14:55:02;7.50;;;6.80;;
9729;SDS011;4904;49.152;11.004;2023-06-26T14:57:30;8.15;;;7.40;;
9729;SDS011;4904;49.152;11.004;2023-06-26T14:59:57;7.20;;;6.60;;
9729;SDS011;4904;49.152;11.004;2023-06-26T15:02:24;9.10;;;7.30;;
9729;SDS011;4904;49.152;11.004;2023-06-26T15:04:52;7.68;;;6.97;;